Latest Weather Observations for Christmas Creek

IDW60801

Issued at 12:04 pm WST Saturday 21 January 2017 (issued every 30 minutes, with the page automatically refreshed every 10 minutes)

About weather observations | Map of weather stations | Latest weather observations for WA | Other Formats
Station Details ID: 505049 Name: CHRISTMAS CREEK Lat: -22.36 Lon: 119.65 Height: 437.21 m
Data from the previous 72 hours. | See also: Recent months for locations in Western Australia
Date/Time
WST
Temp
°C
App
Temp
°C
Dew
Point
°C
Rel
Hum
%
Delta-T
°C
Wind Press
QNH
hPa
Press
MSL
hPa
Rain since
9am
mm
Dir  Spd
km/h
Gust
km/h
Spd
kts
Gust
kts
21/12:00pm 30.3 34.4 22.2 62 5.6 W 4 9 2 5 1007.9 1004.2 0.0
21/11:30am 30.0 33.8 22.4 63 5.3 WNW 6 11 3 6 1008.1 1004.4 0.0
21/11:00am 29.4 33.2 22.4 66 4.8 WNW 6 13 3 7 1008.6 1004.8 0.0
21/10:30am 28.8 32.9 23.0 71 4.0 NW 6 13 3 7 1008.8 1005.0 0.0
21/10:00am 28.2 31.9 23.3 75 3.4 NW 9 19 5 10 1009.0 1005.2 0.0
21/09:30am 27.4 31.5 23.0 77 3.0 N 6 11 3 6 1009.1 1005.3 0.0
21/09:00am 27.1 31.4 23.3 80 2.6 NW 6 13 3 7 1009.1 1005.3 -
21/08:37am 26.5 30.4 22.6 79 2.7 NNW 6 11 3 6 1009.0 1005.2 -
21/08:30am 26.6 30.5 22.9 80 2.5 WNW 7 13 4 7 1008.9 1005.1 -
21/08:00am 25.7 29.2 22.8 84 2.0 WNW 9 13 5 7 1008.6 1004.8 -
21/07:30am 25.0 29.1 22.9 88 1.4 NW 6 9 3 5 1008.5 1004.7 -
21/07:10am 24.8 28.7 23.0 90 1.2 WNW 7 13 4 7 1008.2 1004.5 -
21/07:00am 24.7 28.7 23.1 91 1.1 WNW 7 11 4 6 1008.1 1004.4 -
21/06:30am 24.2 28.7 23.0 93 0.8 WNW 4 6 2 3 1008.1 1004.4 -
21/06:21am 24.0 28.5 23.0 94 0.7 W 4 6 2 3 1008.0 1004.3 -
21/06:00am 23.8 27.8 22.8 94 0.7 WNW 6 7 3 4 1007.8 1004.1 -
21/05:37am 23.8 27.6 22.8 94 0.7 WNW 7 11 4 6 1007.4 1003.7 -
21/05:30am 23.7 27.6 22.9 95 0.5 WNW 7 13 4 7 1007.3 1003.6 -
21/05:00am 23.8 27.7 23.0 95 0.5 W 7 11 4 6 1006.9 1003.1 -
21/04:42am 23.9 26.7 23.0 95 0.6 WNW 13 19 7 10 1006.7 1002.9 -
21/04:30am 23.9 26.7 23.0 95 0.6 WNW 13 20 7 11 1006.7 1002.9 -
21/04:00am 23.8 27.4 23.1 96 0.5 W 9 15 5 8 1006.5 1002.7 -
21/03:30am 23.8 28.0 23.1 96 0.5 NW 6 9 3 5 1006.5 1002.7 -
21/03:00am 23.7 27.4 23.2 97 0.3 W 9 13 5 7 1006.5 1002.7 7.0
21/02:30am 23.5 27.6 23.2 98 0.2 W 7 13 4 7 1006.8 1003.0 -
21/02:28am 23.5 27.6 23.2 98 0.2 WSW 7 13 4 7 1006.8 1003.0 -
21/02:00am 23.5 27.5 22.7 95 0.5 W 6 7 3 4 1006.9 1003.1 -
21/01:30am 23.5 26.5 22.7 95 0.5 NNW 11 13 6 7 1007.0 1003.2 -
21/01:00am 23.3 27.2 22.6 96 0.5 NNE 6 7 3 4 1007.4 1003.7 -
21/12:30am 23.3 27.3 22.8 97 0.3 N 6 7 3 4 1007.7 1004.0 -
21/12:00am 23.1 26.8 22.6 97 0.3 NNE 7 9 4 5 1008.0 1004.3 -
 
Date/Time
WST
Temp
°C
App
Temp
°C
Dew
Point
°C
Rel
Hum
%
Delta-T
°C
Wind Press
QNH
hPa
Press
MSL
hPa
Rain since
9am
mm
Dir  Spd
km/h
Gust
km/h
Spd
kts
Gust
kts
20/11:30pm 23.1 27.0 22.6 97 0.3 N 6 9 3 5 1008.6 1004.8 -
20/11:00pm 23.1 26.8 22.6 97 0.3 NNW 7 9 4 5 1009.0 1005.2 -
20/10:30pm 22.8 26.4 22.3 97 0.3 N 7 9 4 5 1009.1 1005.3 -
20/10:00pm 22.4 25.4 21.9 97 0.3 N 9 11 5 6 1009.0 1005.2 -
20/09:30pm 22.5 26.0 22.2 98 0.2 NW 7 9 4 5 1008.8 1005.0 -
20/09:07pm 22.3 25.7 22.0 98 0.2 NNW 7 9 4 5 1008.9 1005.1 -
20/09:00pm 22.1 26.0 21.8 98 0.2 NE 4 11 2 6 1008.9 1005.1 -
20/08:30pm 21.8 22.1 21.5 98 0.2 ESE 22 32 12 17 1008.8 1005.0 -
20/08:00pm 24.2 25.8 23.3 95 0.6 W 20 43 11 23 1007.4 1003.7 11.4
20/07:54pm 25.4 27.2 23.5 89 1.3 W 20 43 11 23 1006.9 1003.1 6.4
20/07:30pm 25.7 28.1 23.7 89 1.4 W 17 26 9 14 1006.5 1002.7 6.2
20/07:00pm 25.7 29.0 23.2 86 1.7 W 11 19 6 10 1006.2 1002.4 6.2
20/06:30pm 25.7 27.2 23.0 85 1.9 N 20 28 11 15 1005.3 1001.6 6.0
20/06:00pm 26.2 27.3 22.3 79 2.7 NNE 20 28 11 15 1004.9 1001.1 6.0
20/05:30pm 26.2 26.6 22.5 80 2.5 NNE 24 32 13 17 1004.2 1000.4 6.0
20/05:00pm 26.1 25.1 22.0 78 2.8 NE 30 43 16 23 1004.3 1000.5 6.0
20/04:30pm 27.3 27.5 22.7 76 3.2 E 26 43 14 23 1003.7 999.9 6.0
20/04:00pm 28.2 33.1 24.4 80 2.7 SSW 6 9 3 5 1003.1 999.4 5.8
20/03:35pm 26.8 30.0 23.7 83 2.2 SSW 13 19 7 10 1003.4 999.7 5.8
20/03:30pm 26.8 30.2 24.1 85 1.9 SW 13 17 7 9 1003.4 999.7 5.6
20/03:16pm 26.1 27.7 23.2 84 2.0 SSW 20 28 11 15 1003.9 1000.1 5.0
20/03:12pm 26.2 27.1 22.7 81 2.4 SSW 22 28 12 15 1004.0 1000.2 5.0
20/03:00pm 27.4 30.5 23.6 80 2.7 WSW 13 19 7 10 1003.9 1000.1 5.0
20/02:34pm 30.0 32.7 23.4 67 4.6 E 15 20 8 11 1004.0 1000.2 1.2
20/02:30pm 30.9 34.3 24.1 67 4.8 ENE 13 20 7 11 1003.9 1000.1 0.8
20/02:00pm 34.2 35.3 21.3 47 8.9 N 17 26 9 14 1003.5 999.8 0.0
20/01:30pm 34.3 36.6 21.4 47 8.9 NNW 11 24 6 13 1004.0 1000.2 0.0
20/01:00pm 33.9 36.4 21.7 49 8.4 NNE 11 22 6 12 1004.5 1000.7 0.0
20/12:30pm 33.6 35.4 21.1 48 8.6 ENE 13 28 7 15 1005.1 1001.4 0.0
20/12:00pm 33.1 35.9 20.9 48 8.3 NNE 7 19 4 10 1005.4 1001.7 0.0
20/11:30am 32.5 34.6 20.1 48 8.4 E 9 17 5 9 1005.8 1002.1 0.0
20/11:00am 32.3 36.3 22.1 55 7.1 W 4 9 2 5 1006.2 1002.4 0.0
20/10:30am 31.0 34.9 22.6 61 5.8 NW 6 13 3 7 1006.4 1002.6 0.0
20/10:00am 29.5 32.9 22.7 67 4.7 W 9 13 5 7 1006.6 1002.8 0.0
20/09:30am 28.5 31.8 22.5 70 4.1 WSW 9 15 5 8 1006.7 1002.9 0.0
20/09:00am 28.0 31.9 22.9 74 3.5 W 7 13 4 7 1006.5 1002.7 0.0
20/08:30am 27.8 31.9 23.2 76 3.2 WNW 7 15 4 8 1006.4 1002.6 0.0
20/08:00am 25.9 28.2 23.4 86 1.7 WNW 17 20 9 11 1006.4 1002.6 0.0
20/07:30am 25.0 27.9 23.2 90 1.2 WNW 13 20 7 11 1006.4 1002.6 0.0
20/07:00am 24.6 27.9 23.2 92 1.0 WNW 11 17 6 9 1006.4 1002.6 0.0
20/06:30am 24.5 26.6 23.1 92 1.0 NW 17 20 9 11 1005.7 1002.0 0.0
20/06:00am 24.6 28.7 23.0 91 1.1 NNE 6 9 3 5 1006.4 1002.6 0.0
20/05:30am 24.6 28.9 22.7 89 1.3 NE 4 6 2 3 1006.4 1002.6 0.0
20/05:00am 24.5 28.7 23.1 92 1.0 WNW 6 9 3 5 1005.6 1001.9 0.0
20/04:30am 24.3 28.3 23.1 93 0.8 NW 7 15 4 8 1005.2 1001.5 0.0
20/04:00am 24.3 27.4 22.9 92 1.0 NNW 11 15 6 8 1005.1 1001.4 0.0
20/03:30am 24.3 28.2 22.9 92 1.0 NW 7 11 4 6 1005.0 1001.3 0.0
20/03:00am 24.1 28.0 22.9 93 0.8 NNW 7 9 4 5 1005.0 1001.3 0.0
20/02:30am 24.1 26.8 22.9 93 0.8 N 13 19 7 10 1005.0 1001.3 0.0
20/02:00am 24.2 27.4 23.0 93 0.8 N 11 15 6 8 1005.0 1001.3 0.0
20/01:30am 24.5 27.7 23.1 92 1.0 NNW 11 17 6 9 1004.8 1001.0 0.0
20/01:00am 24.4 27.2 23.0 92 1.0 NNW 13 17 7 9 1005.1 1001.4 0.0
20/12:30am 25.0 28.6 23.1 89 1.3 N 9 13 5 7 1005.3 1001.6 0.0
20/12:00am 24.7 27.1 22.9 90 1.2 NNW 15 19 8 10 1005.4 1001.7 0.0
 
Date/Time
WST
Temp
°C
App
Temp
°C
Dew
Point
°C
Rel
Hum
%
Delta-T
°C
Wind Press
QNH
hPa
Press
MSL
hPa
Rain since
9am
mm
Dir  Spd
km/h
Gust
km/h
Spd
kts
Gust
kts
19/11:30pm 25.3 28.6 23.9 92 1.0 NNW 13 19 7 10 1005.8 1002.1 0.0
19/11:00pm 25.4 27.9 23.8 91 1.1 NNW 17 22 9 12 1006.4 1002.6 0.0
19/10:30pm 25.5 28.8 24.5 94 0.7 NNW 15 19 8 10 1006.6 1002.8 0.0
19/10:00pm 25.9 30.5 24.7 93 0.8 NNW 9 13 5 7 1006.6 1002.8 0.0
19/09:30pm 25.9 30.7 24.5 92 1.0 NNW 7 11 4 6 1006.8 1003.0 0.0
19/09:00pm 25.8 29.9 24.0 90 1.3 NNW 9 13 5 7 1007.1 1003.4 0.0
19/08:30pm 25.8 29.9 23.3 86 1.7 N 7 9 4 5 1006.9 1003.1 0.0
19/08:00pm 25.9 30.8 23.0 84 2.0 ESE 2 6 1 3 1006.5 1002.7 0.0
19/07:30pm 25.5 30.4 23.0 86 1.7 S 2 2 1 1 1006.3 1002.5 0.0
19/07:00pm 25.3 29.3 22.8 86 1.7 WSW 6 7 3 4 1005.8 1002.1 0.0
19/06:30pm 24.8 28.8 22.7 88 1.4 WSW 6 11 3 6 1005.5 1001.8 0.0
19/06:00pm 24.2 26.9 22.1 88 1.4 SW 11 17 6 9 1005.4 1001.7 0.0
19/05:51pm 24.1 26.0 22.0 88 1.4 SW 15 22 8 12 1005.4 1001.7 0.0
19/05:36pm 23.9 24.2 21.6 87 1.5 SW 22 37 12 20 1005.7 1002.0 0.0
19/05:30pm 26.1 27.8 23.4 85 1.9 SSW 20 37 11 20 1005.8 1002.1 0.0
19/05:00pm 28.8 33.3 24.6 78 3.0 SSW 9 20 5 11 1004.9 1001.1 0.0
19/04:30pm 28.4 32.3 24.2 78 3.0 SW 11 20 6 11 1004.5 1000.7 0.0
19/04:00pm 26.7 29.7 24.0 85 1.9 S 15 20 8 11 1003.9 1000.1 0.0
19/03:30pm 29.7 29.2 22.2 64 5.2 SSW 28 43 15 23 1004.3 1000.5 0.0
19/03:00pm 34.1 35.6 20.5 45 9.3 WNW 13 26 7 14 1004.0 1000.2 0.0
19/02:30pm 33.6 35.4 20.4 46 9.0 NW 11 20 6 11 1004.0 1000.2 0.0
19/02:00pm 33.7 35.8 20.1 44 9.2 W 9 22 5 12 1004.5 1000.7 0.0
19/01:30pm 33.0 36.0 20.9 49 8.2 N 6 15 3 8 1005.0 1001.3 0.0
19/01:00pm 33.2 34.9 21.0 48 8.4 W 13 22 7 12 1005.8 1002.1 0.0
19/12:30pm 32.0 34.3 20.6 51 7.7 WSW 9 20 5 11 1006.6 1002.8 0.0
19/12:00pm 31.4 33.4 20.7 53 7.3 WNW 11 19 6 10 1007.0 1003.2 0.0
19/11:30am 30.8 33.3 21.0 56 6.7 WNW 9 17 5 9 1007.3 1003.6 0.0
19/11:00am 30.4 33.1 20.6 55 6.6 SW 7 15 4 8 1007.7 1004.0 0.0
19/10:30am 29.4 32.2 20.8 60 5.8 W 7 15 4 8 1007.9 1004.2 0.0
19/10:00am 29.1 31.6 21.1 62 5.4 SW 9 17 5 9 1008.2 1004.5 0.0
19/09:30am 28.5 31.4 21.8 67 4.6 W 9 15 5 8 1008.3 1004.6 0.0
19/09:00am 28.4 31.4 21.9 68 4.4 WSW 9 19 5 10 1008.3 1004.6 0.0
19/08:30am 27.9 31.3 21.7 69 4.2 WNW 6 13 3 7 1008.1 1004.4 0.0
19/08:00am 27.0 30.2 21.7 73 3.6 WNW 7 11 4 6 1008.1 1004.4 0.0
19/07:30am 26.0 29.0 21.9 78 2.8 WNW 9 13 5 7 1008.3 1004.6 0.0
19/07:00am 24.9 28.7 22.4 86 1.7 W 6 9 3 5 1008.2 1004.5 0.0
19/06:30am 24.2 27.9 22.5 90 1.2 WNW 7 9 4 5 1008.1 1004.4 0.0
19/06:00am 24.2 27.5 22.6 91 1.1 WNW 9 13 5 7 1008.1 1004.4 0.0
19/05:30am 24.1 27.9 22.7 92 1.0 WNW 7 9 4 5 1007.7 1004.0 0.0
19/05:00am 24.0 27.3 22.6 92 1.0 WNW 9 13 5 7 1007.2 1003.5 0.0
19/04:30am 24.2 27.2 22.6 91 1.1 WNW 11 15 6 8 1007.0 1003.2 0.0
19/04:00am 24.3 27.8 22.9 92 1.0 WNW 9 13 5 7 1006.8 1003.0 0.0
19/03:30am 24.3 28.5 23.1 93 0.8 NNE 6 7 3 4 1006.5 1002.7 0.0
19/03:00am 24.3 29.1 22.9 92 1.0 SE 2 2 1 1 1006.4 1002.6 0.0
19/02:30am 24.1 28.6 22.9 93 0.8 W 4 7 2 4 1006.4 1002.6 0.0
19/02:00am 24.2 29.1 23.0 93 0.8 SSW 2 2 1 1 1006.4 1002.6 0.0
19/01:30am 24.3 29.2 23.1 93 0.8 WSW 2 4 1 2 1006.5 1002.7 0.0
19/01:00am 24.5 29.3 22.9 91 1.1 ESE 2 4 1 2 1006.8 1003.0 0.0
19/12:30am 24.2 28.6 22.8 92 1.0 WSW 4 6 2 3 1007.1 1003.4 0.0
19/12:00am 24.4 28.4 22.8 91 1.1 WNW 6 9 3 5 1007.6 1003.9 0.0
 
Date/Time
WST
Temp
°C
App
Temp
°C
Dew
Point
°C
Rel
Hum
%
Delta-T
°C
Wind Press
QNH
hPa
Press
MSL
hPa
Rain since
9am
mm
Dir  Spd
km/h
Gust
km/h
Spd
kts
Gust
kts
18/11:30pm 24.3 27.7 22.7 91 1.1 W 9 13 5 7 1008.5 1004.7 0.0
18/11:00pm 24.4 27.8 22.7 90 1.2 WNW 9 15 5 8 1009.3 1005.6 0.0
18/10:42pm 24.5 27.6 22.9 91 1.1 WNW 11 19 6 10 1009.6 1005.9 0.0
18/10:30pm 24.5 27.2 22.8 90 1.2 W 13 22 7 12 1009.6 1005.9 0.0
18/10:00pm 24.6 27.4 23.0 91 1.1 W 13 20 7 11 1010.0 1006.3 0.0
18/09:34pm 24.6 27.0 23.0 91 1.1 WNW 15 22 8 12 1009.9 1006.2 0.0
18/09:30pm 24.6 27.1 23.2 92 1.0 NW 15 20 8 11 1009.9 1006.2 0.0
18/09:00pm 24.6 26.6 23.0 91 1.1 NW 17 22 9 12 1009.4 1005.7 0.0
18/08:30pm 24.5 26.1 23.3 93 0.8 NW 20 26 11 14 1009.2 1005.5 0.0
18/08:00pm 24.6 26.5 22.8 90 1.2 NW 17 22 9 12 1009.0 1005.2 0.0
18/07:30pm 24.7 26.7 22.9 90 1.2 NNW 17 20 9 11 1008.7 1004.9 0.0
18/07:00pm 25.3 28.0 22.8 86 1.7 NNW 13 19 7 10 1008.5 1004.7 0.0
18/06:30pm 25.2 28.9 23.3 89 1.3 NNW 9 15 5 8 1007.9 1004.2 0.0
18/06:00pm 25.2 28.3 23.6 91 1.1 NW 13 15 7 8 1007.8 1004.1 0.0
18/05:30pm 24.9 28.1 23.7 93 0.8 NW 13 17 7 9 1007.2 1003.5 0.0
18/05:00pm 24.7 28.9 23.5 93 0.8 WNW 7 11 4 6 1007.6 1003.9 0.0
18/04:30pm 24.4 26.7 22.7 90 1.2 WNW 15 20 8 11 1007.4 1003.7 0.0
18/04:00pm 24.4 28.1 23.2 93 0.8 W 9 19 5 10 1007.5 1003.8 0.0
18/03:30pm 24.8 28.2 23.4 92 1.0 W 11 17 6 9 1007.7 1004.0 0.0
18/03:00pm 24.7 29.4 23.3 92 1.0 NNE 4 7 2 4 1007.5 1003.8 0.0
18/02:50pm 24.6 28.3 23.2 92 1.0 NE 9 13 5 7 1007.4 1003.7 0.0
18/02:33pm 24.6 27.7 23.6 94 0.7 NE 13 17 7 9 1007.3 1003.6 0.0
18/02:30pm 25.0 28.8 24.1 95 0.6 NNE 11 17 6 9 1007.3 1003.6 0.0
18/02:00pm 24.6 25.3 23.0 91 1.1 NW 24 32 13 17 1007.7 1004.0 0.0
18/01:30pm 27.3 27.8 22.0 73 3.6 E 22 32 12 17 1006.8 1003.0 0.0
18/01:00pm 30.0 33.0 23.4 67 4.6 ENE 13 17 7 9 1006.4 1002.6 0.0
18/12:30pm 29.8 32.2 23.0 67 4.7 NE 15 20 8 11 1006.7 1002.9 0.0

Other Formats:

Comma delimited format used in spreadsheet applications
http://www.bom.gov.au/fwo/IDW60801/IDW60801.99737.axf

JavaScript Object Notation format (JSON) in row-major order
http://www.bom.gov.au/fwo/IDW60801/IDW60801.99737.json